Time;durP1;ratioP1;P1;durP2;ratioP2;P2;SDS_P1;SDS_P2;PMS_P1;PMS_P2;Temp;Humidity;BMP_temperature;BMP_pressure;BME280_temperature;BME280_humidity;BME280_pressure;Samples;Min_cycle;Max_cycle;Signal;HPM_P1;HPM_P2
2021/11/27 00:00:18;;;;;;;8.10;4.82;;;2.00;99.90;;;;;;5075035;28;20501;-80
2021/11/27 00:02:45;;;;;;;6.80;4.72;;;2.10;99.90;;;;;;5076046;28;20028;-81
2021/11/27 00:05:12;;;;;;;9.68;5.95;;;1.90;99.90;;;;;;5074861;28;20024;-80
2021/11/27 00:07:38;;;;;;;9.38;5.38;;;1.70;99.90;;;;;;5074919;28;20035;-79
2021/11/27 00:10:07;;;;;;;8.40;5.20;;;1.80;99.90;;;;;;5074814;28;20024;-80
2021/11/27 00:12:32;;;;;;;13.40;5.05;;;1.80;99.90;;;;;;5074693;28;20020;-79
2021/11/27 00:14:58;;;;;;;9.05;5.30;;;1.70;99.90;;;;;;5092918;28;20081;-81
2021/11/27 00:17:24;;;;;;;7.65;4.75;;;1.70;99.90;;;;;;5075084;28;20024;-79
2021/11/27 00:19:50;;;;;;;8.18;5.07;;;1.80;99.90;;;;;;5074766;28;20020;-81
2021/11/27 00:22:17;;;;;;;8.25;4.72;;;1.70;99.90;;;;;;5074706;28;20028;-81
2021/11/27 00:24:43;;;;;;;8.32;5.13;;;1.90;99.90;;;;;;5074749;28;20098;-81
2021/11/27 00:27:09;;;;;;;10.05;5.82;;;2.00;99.90;;;;;;5074699;28;20039;-80
2021/11/27 00:29:34;;;;;;;7.68;4.90;;;2.00;99.90;;;;;;5074643;28;20028;-81
2021/11/27 00:32:00;;;;;;;7.80;5.47;;;2.00;99.90;;;;;;5074656;28;20016;-80
2021/11/27 00:34:26;;;;;;;10.05;5.55;;;2.00;99.90;;;;;;5074708;28;20016;-80
2021/11/27 00:36:53;;;;;;;10.30;5.65;;;2.00;99.90;;;;;;5092780;28;20102;-80
2021/11/27 00:39:19;;;;;;;7.88;5.22;;;1.80;99.90;;;;;;5092756;28;20107;-81
2021/11/27 00:41:46;;;;;;;8.02;5.30;;;1.70;99.90;;;;;;5074641;28;20443;-80
2021/11/27 00:44:12;;;;;;;10.35;5.60;;;1.70;99.90;;;;;;5074510;28;20037;-80
2021/11/27 00:46:38;;;;;;;9.00;5.57;;;1.80;99.90;;;;;;5074527;28;20035;-80
2021/11/27 00:49:04;;;;;;;9.73;5.75;;;1.90;99.90;;;;;;5092538;28;20429;-80
2021/11/27 00:51:31;;;;;;;8.25;5.13;;;2.00;99.90;;;;;;5074537;28;20383;-80
2021/11/27 00:53:57;;;;;;;9.35;6.13;;;1.90;99.90;;;;;;5092614;28;20100;-80
2021/11/27 00:56:24;;;;;;;8.82;5.43;;;1.90;99.90;;;;;;5074198;28;20103;-80
2021/11/27 00:58:50;;;;;;;10.30;6.30;;;1.80;99.90;;;;;;5074266;28;20031;-80
2021/11/27 01:01:26;;;;;;;9.45;5.88;;;1.80;99.90;;;;;;5092520;28;20019;-80
2021/11/27 01:03:53;;;;;;;8.65;5.00;;;2.00;99.90;;;;;;5074450;28;20066;-80
2021/11/27 01:06:22;;;;;;;8.85;5.32;;;2.00;99.90;;;;;;5096166;28;20020;-80
2021/11/27 01:08:50;;;;;;;8.48;5.55;;;2.00;99.90;;;;;;5077998;28;20023;-80
2021/11/27 01:11:29;;;;;;;10.80;5.40;;;2.00;99.90;;;;;;5078020;28;20114;-80
2021/11/27 01:13:59;;;;;;;8.25;5.13;;;2.10;99.90;;;;;;5078079;28;20475;-79
2021/11/27 01:16:28;;;;;;;8.85;5.25;;;2.20;99.90;;;;;;5077907;28;20024;-79
2021/11/27 01:18:54;;;;;;;10.80;5.53;;;1.90;99.90;;;;;;5096354;28;20065;-80
2021/11/27 01:21:24;;;;;;;9.43;5.78;;;1.60;99.90;;;;;;5077846;28;20024;-80
2021/11/27 01:23:54;;;;;;;8.88;5.45;;;1.60;99.90;;;;;;5077769;28;20035;-80
2021/11/27 01:26:19;;;;;;;7.50;5.20;;;1.70;99.90;;;;;;5078049;28;20332;-79
2021/11/27 01:28:45;;;;;;;7.93;4.40;;;1.80;99.90;;;;;;5077622;28;20028;-80
2021/11/27 01:31:11;;;;;;;6.97;4.07;;;1.90;99.90;;;;;;5077647;28;20016;-80
2021/11/27 01:33:38;;;;;;;6.18;3.53;;;2.00;99.90;;;;;;5095847;28;20077;-80
2021/11/27 01:36:04;;;;;;;5.68;3.35;;;2.00;99.90;;;;;;5095608;28;20024;-80
2021/11/27 01:38:30;;;;;;;6.50;4.03;;;1.70;99.90;;;;;;5095810;28;20020;-80
2021/11/27 01:40:57;;;;;;;5.22;3.40;;;1.80;99.90;;;;;;5077525;28;20491;-79
2021/11/27 01:43:23;;;;;;;6.15;4.10;;;1.80;99.90;;;;;;5077348;28;20028;-80
2021/11/27 01:45:50;;;;;;;6.00;3.40;;;1.90;99.90;;;;;;5077379;28;20073;-79
2021/11/27 01:48:17;;;;;;;6.90;3.72;;;1.80;99.90;;;;;;5077222;28;20127;-79
2021/11/27 01:50:48;;;;;;;8.93;4.72;;;1.80;99.90;;;;;;5095573;28;20032;-79
2021/11/27 01:53:14;;;;;;;6.78;4.05;;;1.80;99.90;;;;;;5078127;28;20028;-79
2021/11/27 01:55:40;;;;;;;8.52;4.97;;;1.70;99.90;;;;;;5095391;28;20467;-78
2021/11/27 01:58:07;;;;;;;8.57;4.65;;;1.60;99.90;;;;;;5077039;28;20051;-79
2021/11/27 02:00:36;;;;;;;7.85;5.43;;;1.60;99.90;;;;;;5077033;28;20096;-79
2021/11/27 02:03:02;;;;;;;7.97;4.97;;;1.80;99.90;;;;;;5095139;28;20024;-80
2021/11/27 02:05:29;;;;;;;11.45;6.22;;;1.70;99.90;;;;;;5076990;28;20129;-79
2021/11/27 02:07:55;;;;;;;10.45;5.97;;;1.60;99.90;;;;;;5076947;28;20111;-79
2021/11/27 02:10:21;;;;;;;8.40;5.72;;;1.70;99.90;;;;;;5095120;28;20024;-77
2021/11/27 02:12:48;;;;;;;8.35;5.10;;;1.80;99.90;;;;;;5060380;28;20502;-78
2021/11/27 02:15:15;;;;;;;11.80;6.88;;;1.60;99.90;;;;;;5076929;28;20047;-81
2021/11/27 02:17:42;;;;;;;10.07;5.53;;;1.60;99.90;;;;;;5094096;28;20043;-81
2021/11/27 02:20:09;;;;;;;9.40;6.40;;;1.60;99.90;;;;;;5076856;28;20437;-80
2021/11/27 02:22:35;;;;;;;10.30;6.25;;;1.60;99.90;;;;;;5076790;28;20047;-79
2021/11/27 02:25:09;;;;;;;9.63;6.50;;;1.80;99.90;;;;;;5077310;28;20031;-80
2021/11/27 02:27:35;;;;;;;10.18;6.45;;;1.80;99.90;;;;;;5094803;28;20442;-81
2021/11/27 02:30:02;;;;;;;9.55;5.70;;;1.80;99.90;;;;;;5094771;28;20031;-80
2021/11/27 02:32:28;;;;;;;9.02;6.10;;;1.80;99.90;;;;;;5076526;28;20032;-81
2021/11/27 02:34:54;;;;;;;9.50;5.88;;;2.00;99.90;;;;;;5076460;28;20030;-78
2021/11/27 02:37:19;;;;;;;9.10;5.40;;;1.90;99.90;;;;;;5076540;28;20080;-80
2021/11/27 02:39:45;;;;;;;8.88;5.80;;;1.80;99.90;;;;;;5094472;28;20099;-79
2021/11/27 02:42:11;;;;;;;9.30;5.85;;;1.90;99.90;;;;;;5094311;28;20024;-79
2021/11/27 02:44:38;;;;;;;9.70;5.57;;;1.90;99.90;;;;;;5076148;28;20077;-80
2021/11/27 02:47:07;;;;;;;6.82;4.80;;;1.90;99.90;;;;;;5075942;28;20052;-79
2021/11/27 02:49:33;;;;;;;11.00;4.80;;;2.00;99.90;;;;;;5076012;28;20085;-78
2021/11/27 02:51:59;;;;;;;9.88;5.30;;;1.90;99.90;;;;;;5076009;28;20028;-79
2021/11/27 02:54:26;;;;;;;7.13;4.97;;;1.90;99.90;;;;;;5076055;28;20593;-80
2021/11/27 02:56:52;;;;;;;7.60;4.47;;;2.00;99.90;;;;;;5076000;28;20550;-80
2021/11/27 02:59:23;;;;;;;10.45;4.57;;;2.00;99.90;;;;;;5075952;28;20035;-80
2021/11/27 03:01:56;;;;;;;8.07;4.93;;;2.20;99.90;;;;;;5075952;28;20024;-80
2021/11/27 03:04:23;;;;;;;8.63;4.60;;;2.30;99.90;;;;;;5075985;28;20032;-80
2021/11/27 03:06:49;;;;;;;7.25;4.95;;;2.30;99.90;;;;;;5075815;28;20057;-80
2021/11/27 03:09:16;;;;;;;8.80;5.30;;;2.20;99.90;;;;;;5094004;28;20095;-80
2021/11/27 03:11:49;;;;;;;8.75;5.93;;;2.20;99.90;;;;;;5075700;28;20020;-80
2021/11/27 03:14:15;;;;;;;10.52;6.50;;;2.10;99.90;;;;;;5075664;28;20544;-80
2021/11/27 03:16:41;;;;;;;9.52;5.45;;;2.10;99.90;;;;;;5093732;28;20020;-80
2021/11/27 03:19:07;;;;;;;10.88;5.68;;;2.00;99.90;;;;;;5075440;28;20395;-81
2021/11/27 03:21:33;;;;;;;9.02;5.88;;;2.10;99.90;;;;;;5075294;28;20438;-81
2021/11/27 03:23:59;;;;;;;9.00;5.68;;;2.00;99.90;;;;;;5075314;28;20078;-81
2021/11/27 03:26:25;;;;;;;11.25;5.43;;;2.10;99.90;;;;;;5075297;28;20035;-81
2021/11/27 03:28:51;;;;;;;11.32;5.78;;;2.00;99.90;;;;;;5075129;28;20056;-82
2021/11/27 03:31:17;;;;;;;9.93;5.20;;;2.00;99.90;;;;;;5075547;28;20051;-81
2021/11/27 03:33:43;;;;;;;8.52;4.75;;;2.20;99.90;;;;;;5075305;28;20113;-81
2021/11/27 03:36:10;;;;;;;8.18;4.82;;;2.20;99.90;;;;;;5075730;28;20020;-80
2021/11/27 03:38:36;;;;;;;7.88;4.78;;;2.20;99.90;;;;;;5075253;28;20479;-81
2021/11/27 03:41:03;;;;;;;9.30;5.25;;;2.20;99.90;;;;;;5075149;28;20020;-80
2021/11/27 03:43:29;;;;;;;9.95;5.63;;;2.20;99.90;;;;;;5093287;28;20480;-81
2021/11/27 03:45:55;;;;;;;10.55;5.60;;;2.10;99.90;;;;;;5075118;28;20035;-80
2021/11/27 03:48:38;;;;;;;8.10;4.60;;;2.00;99.90;;;;;;5093461;28;20028;-81
2021/11/27 03:51:08;;;;;;;8.52;4.85;;;2.20;99.90;;;;;;5093528;28;20379;-81
2021/11/27 03:53:36;;;;;;;11.23;5.72;;;2.30;99.90;;;;;;5075096;28;20024;-81
2021/11/27 03:56:06;;;;;;;6.05;4.50;;;2.20;99.90;;;;;;5074952;28;20020;-81
2021/11/27 03:58:31;;;;;;;8.63;5.15;;;2.30;99.90;;;;;;5093044;28;20024;-81
2021/11/27 04:00:58;;;;;;;10.75;5.50;;;2.20;99.90;;;;;;5093051;28;20035;-80
2021/11/27 04:03:24;;;;;;;7.47;4.93;;;2.20;99.90;;;;;;5074835;28;20051;-81
2021/11/27 04:05:57;;;;;;;9.68;5.20;;;2.10;99.90;;;;;;5074807;28;20036;-80
2021/11/27 04:08:23;;;;;;;7.72;4.47;;;2.10;99.90;;;;;;5074778;28;20028;-81
2021/11/27 04:10:49;;;;;;;8.27;4.60;;;2.20;99.90;;;;;;5074688;28;20583;-81
2021/11/27 04:13:16;;;;;;;6.18;4.53;;;2.20;99.90;;;;;;5074790;28;20020;-81
2021/11/27 04:15:42;;;;;;;6.38;4.80;;;2.40;99.90;;;;;;5092822;28;20097;-81
2021/11/27 04:18:08;;;;;;;6.93;3.92;;;2.30;99.90;;;;;;5074719;28;20024;-81
2021/11/27 04:20:34;;;;;;;6.97;4.15;;;2.20;99.90;;;;;;5074597;28;20545;-81
2021/11/27 04:23:00;;;;;;;7.70;4.15;;;2.20;99.90;;;;;;5074585;28;20039;-81
2021/11/27 04:25:27;;;;;;;5.70;3.75;;;2.30;99.90;;;;;;5092742;28;20436;-81
2021/11/27 04:27:53;;;;;;;6.00;3.95;;;2.20;99.90;;;;;;5092715;28;20032;-81
2021/11/27 04:30:22;;;;;;;5.43;3.88;;;2.30;99.90;;;;;;5074543;28;20028;-80
2021/11/27 04:32:48;;;;;;;8.15;4.32;;;2.20;99.90;;;;;;5074546;28;20112;-81
2021/11/27 04:35:15;;;;;;;6.07;3.90;;;2.10;99.90;;;;;;5092939;28;20490;-81
2021/11/27 04:37:42;;;;;;;6.30;3.63;;;2.00;99.90;;;;;;5074379;28;20073;-81
2021/11/27 04:40:08;;;;;;;4.70;3.13;;;2.00;99.90;;;;;;5076301;28;20039;-79
2021/11/27 04:42:35;;;;;;;5.22;3.20;;;2.00;99.90;;;;;;5096738;28;20076;-81
2021/11/27 04:45:03;;;;;;;4.75;3.08;;;2.00;99.90;;;;;;5078596;28;20054;-81
2021/11/27 04:47:28;;;;;;;4.78;2.75;;;2.10;99.90;;;;;;5078333;28;20056;-81
2021/11/27 04:49:54;;;;;;;3.20;2.50;;;2.20;99.90;;;;;;5078389;28;20097;-81
2021/11/27 04:52:21;;;;;;;3.25;2.35;;;2.30;99.90;;;;;;5078478;28;20449;-82
2021/11/27 04:54:47;;;;;;;4.13;2.85;;;2.20;99.90;;;;;;5078441;28;20096;-81
2021/11/27 04:57:13;;;;;;;3.30;2.53;;;2.20;99.90;;;;;;5078384;28;20046;-82
2021/11/27 04:59:39;;;;;;;2.33;1.80;;;2.30;99.90;;;;;;5078256;28;20488;-81
2021/11/27 05:02:05;;;;;;;3.13;1.98;;;2.20;99.90;;;;;;5078155;28;20441;-81
2021/11/27 05:04:31;;;;;;;2.63;1.75;;;2.20;99.90;;;;;;5078174;28;20479;-79
2021/11/27 05:06:57;;;;;;;4.05;2.25;;;2.00;99.90;;;;;;5078160;28;20028;-81
2021/11/27 05:09:23;;;;;;;2.83;1.95;;;2.10;99.90;;;;;;5078063;28;20122;-82
2021/11/27 05:11:48;;;;;;;2.58;1.90;;;2.20;99.90;;;;;;5078124;28;20107;-82
2021/11/27 05:14:14;;;;;;;2.30;1.88;;;2.20;99.90;;;;;;5096557;28;20020;-82
2021/11/27 05:16:40;;;;;;;2.05;1.50;;;2.20;99.90;;;;;;5078106;28;20072;-81
2021/11/27 05:19:06;;;;;;;4.07;2.15;;;2.30;99.90;;;;;;5096143;28;20103;-82
2021/11/27 05:21:32;;;;;;;2.88;1.58;;;2.30;99.90;;;;;;5078070;28;20110;-81
2021/11/27 05:23:58;;;;;;;2.75;1.67;;;2.20;99.90;;;;;;5079077;28;20028;-82
2021/11/27 05:26:24;;;;;;;2.50;1.48;;;2.30;99.90;;;;;;5077859;28;20126;-81
2021/11/27 05:28:50;;;;;;;2.55;1.48;;;2.20;99.90;;;;;;5095924;28;20024;-82
2021/11/27 05:31:17;;;;;;;3.10;1.70;;;2.10;99.90;;;;;;5077756;28;20028;-82
2021/11/27 05:36:30;;;;;;;2.50;1.58;;;2.30;99.90;;;;;;5096107;28;20040;-82
2021/11/27 05:38:56;;;;;;;2.75;1.70;;;2.20;99.90;;;;;;5077506;28;20031;-82
2021/11/27 05:41:22;;;;;;;2.80;1.50;;;2.30;99.90;;;;;;5077498;28;20020;-81
2021/11/27 05:43:48;;;;;;;2.40;1.80;;;2.30;99.90;;;;;;5077477;28;20588;-82
2021/11/27 05:46:14;;;;;;;4.60;1.70;;;2.30;99.90;;;;;;5077403;28;20107;-81
2021/11/27 05:48:39;;;;;;;2.33;1.60;;;2.40;99.90;;;;;;5077251;28;20016;-82
2021/11/27 05:51:05;;;;;;;2.83;1.50;;;2.40;99.90;;;;;;5075891;28;20483;-81
2021/11/27 05:53:31;;;;;;;1.60;1.33;;;2.40;99.90;;;;;;5077245;28;20020;-82
2021/11/27 05:55:57;;;;;;;1.80;1.40;;;2.50;99.90;;;;;;5095411;28;20023;-82
2021/11/27 05:58:24;;;;;;;1.42;1.15;;;2.50;99.90;;;;;;5077197;28;20024;-82
2021/11/27 06:00:50;;;;;;;2.63;1.30;;;2.40;99.90;;;;;;5077155;28;20538;-82
2021/11/27 06:03:16;;;;;;;1.73;1.08;;;2.40;99.90;;;;;;5076929;28;20024;-82
2021/11/27 06:05:42;;;;;;;2.33;1.70;;;2.40;99.90;;;;;;5076932;28;20502;-82
2021/11/27 06:08:08;;;;;;;5.00;1.90;;;2.30;99.90;;;;;;5076771;28;20024;-82
2021/11/27 06:10:34;;;;;;;2.30;1.50;;;2.40;99.90;;;;;;5094951;28;20027;-81
2021/11/27 06:13:01;;;;;;;2.45;1.65;;;2.30;99.90;;;;;;5076846;28;20119;-82
2021/11/27 06:15:27;;;;;;;2.90;1.48;;;2.40;99.90;;;;;;5095425;28;20024;-81
2021/11/27 06:17:53;;;;;;;2.50;1.50;;;2.30;99.90;;;;;;5094912;28;20490;-81
2021/11/27 06:20:20;;;;;;;2.58;1.73;;;2.30;99.90;;;;;;5076685;28;20053;-81
2021/11/27 06:22:46;;;;;;;2.13;1.50;;;2.30;99.90;;;;;;5076722;28;20059;-80
2021/11/27 06:25:12;;;;;;;2.75;1.55;;;2.20;99.90;;;;;;5094720;28;20104;-81
2021/11/27 06:27:38;;;;;;;4.28;1.90;;;2.20;99.90;;;;;;5094747;28;20259;-81
2021/11/27 06:30:06;;;;;;;1.30;1.20;;;2.30;99.90;;;;;;5076437;28;20056;-82
2021/11/27 06:32:32;;;;;;;7.13;3.40;;;2.30;99.90;;;;;;5076477;28;20021;-80
2021/11/27 06:34:59;;;;;;;2.20;1.77;;;2.40;99.90;;;;;;5076520;28;20024;-81
2021/11/27 06:37:25;;;;;;;1.48;1.38;;;2.30;99.90;;;;;;5076184;28;20036;-80
2021/11/27 06:39:51;;;;;;;3.15;1.48;;;2.30;99.90;;;;;;5076389;28;20028;-81
2021/11/27 06:42:18;;;;;;;2.22;1.50;;;2.30;99.90;;;;;;5094499;28;20028;-81
2021/11/27 06:44:47;;;;;;;1.80;1.58;;;2.30;99.90;;;;;;5076298;28;20218;-81
2021/11/27 06:47:14;;;;;;;1.75;1.55;;;2.10;99.90;;;;;;5076156;28;20051;-81
2021/11/27 06:49:40;;;;;;;3.33;1.67;;;2.10;99.90;;;;;;5076070;28;20483;-81
2021/11/27 06:52:06;;;;;;;3.85;2.30;;;1.90;99.90;;;;;;5094269;28;20029;-81
2021/11/27 06:54:32;;;;;;;3.17;2.53;;;2.10;99.90;;;;;;5076073;28;20559;-81
2021/11/27 06:56:57;;;;;;;5.95;2.78;;;2.10;99.90;;;;;;5094199;28;20099;-81
2021/11/27 06:59:23;;;;;;;2.90;2.17;;;2.00;99.90;;;;;;5075966;28;20093;-81
2021/11/27 07:01:49;;;;;;;3.95;2.33;;;2.00;99.90;;;;;;5075666;28;20032;-81
2021/11/27 07:04:17;;;;;;;3.33;2.40;;;1.90;99.90;;;;;;5076118;28;20028;-82
2021/11/27 07:06:43;;;;;;;3.55;2.30;;;2.00;99.90;;;;;;5075835;28;20027;-81
2021/11/27 07:09:09;;;;;;;2.80;2.00;;;2.00;99.90;;;;;;5093878;28;20028;-81
2021/11/27 07:11:35;;;;;;;3.45;2.17;;;2.10;99.90;;;;;;5075782;28;20039;-82
2021/11/27 07:14:01;;;;;;;1.85;1.60;;;2.10;99.90;;;;;;5075765;28;20069;-82
2021/11/27 07:16:27;;;;;;;3.75;2.60;;;2.10;99.90;;;;;;5075622;28;20432;-81
2021/11/27 07:18:53;;;;;;;3.10;2.45;;;2.10;99.90;;;;;;5075656;28;20463;-81
2021/11/27 07:21:19;;;;;;;3.40;2.30;;;2.00;99.90;;;;;;5075515;28;20035;-81
2021/11/27 07:23:45;;;;;;;3.38;1.98;;;2.10;99.90;;;;;;5075441;28;20103;-81
2021/11/27 07:26:10;;;;;;;3.13;1.95;;;2.00;99.90;;;;;;5093940;28;20048;-81
2021/11/27 07:28:36;;;;;;;2.75;1.77;;;2.10;99.90;;;;;;5075370;28;20052;-81
2021/11/27 07:31:02;;;;;;;3.50;2.08;;;2.10;99.90;;;;;;5093514;28;20032;-81
2021/11/27 07:33:28;;;;;;;2.42;2.08;;;2.10;99.90;;;;;;5075353;28;20023;-82
2021/11/27 07:35:54;;;;;;;3.22;2.13;;;2.10;99.90;;;;;;5093800;28;20024;-82
2021/11/27 07:38:20;;;;;;;4.72;3.20;;;2.10;99.90;;;;;;5075330;28;20028;-81
2021/11/27 07:40:47;;;;;;;4.93;3.47;;;2.00;99.90;;;;;;5058881;28;20059;-81
2021/11/27 07:43:13;;;;;;;4.45;3.15;;;2.00;99.90;;;;;;5075281;28;20020;-81
2021/11/27 07:45:39;;;;;;;8.35;3.85;;;2.10;99.90;;;;;;5093321;28;20054;-81
2021/11/27 07:48:06;;;;;;;5.25;3.80;;;2.10;99.90;;;;;;5093254;28;20387;-81
2021/11/27 07:50:32;;;;;;;5.60;3.60;;;2.10;99.90;;;;;;5075002;28;20036;-81
2021/11/27 07:52:58;;;;;;;6.75;3.60;;;2.30;99.90;;;;;;5075042;28;20063;-81
2021/11/27 07:55:25;;;;;;;5.00;2.80;;;2.10;99.90;;;;;;5075040;28;20024;-82
2021/11/27 07:57:51;;;;;;;4.00;2.83;;;2.30;99.90;;;;;;5074867;28;20016;-82
2021/11/27 08:00:17;;;;;;;6.03;2.88;;;2.50;99.90;;;;;;5074846;28;20031;-81
2021/11/27 08:02:43;;;;;;;5.93;3.63;;;2.50;99.90;;;;;;5093154;28;20028;-82
2021/11/27 08:05:09;;;;;;;6.82;3.42;;;2.70;99.90;;;;;;5075517;28;20378;-82
2021/11/27 08:07:38;;;;;;;7.85;4.22;;;2.90;99.90;;;;;;5075060;28;20028;-80
2021/11/27 08:10:05;;;;;;;7.72;3.53;;;3.10;99.90;;;;;;5074853;28;20027;-82
2021/11/27 08:12:31;;;;;;;3.30;2.35;;;3.40;99.90;;;;;;5074907;28;20072;-83
2021/11/27 08:14:57;;;;;;;4.25;2.78;;;3.60;99.90;;;;;;5074126;28;20391;-82
2021/11/27 08:17:23;;;;;;;7.13;3.65;;;3.60;99.90;;;;;;5074814;28;20024;-81
2021/11/27 08:19:48;;;;;;;5.28;2.05;;;3.50;99.90;;;;;;5074801;28;20430;-82
2021/11/27 08:22:14;;;;;;;4.32;3.05;;;3.30;99.90;;;;;;5074810;28;20086;-82
2021/11/27 08:24:40;;;;;;;4.78;2.40;;;3.20;99.90;;;;;;5074805;28;20024;-82
2021/11/27 08:27:06;;;;;;;7.55;3.80;;;3.20;99.90;;;;;;5074731;28;20024;-82
2021/11/27 08:29:32;;;;;;;6.53;3.67;;;3.30;99.90;;;;;;5074632;28;20111;-82
2021/11/27 08:31:58;;;;;;;7.47;2.38;;;3.40;99.90;;;;;;5074660;28;20408;-82
2021/11/27 08:34:24;;;;;;;4.68;2.58;;;3.50;99.90;;;;;;5074634;28;20106;-81
2021/11/27 08:36:50;;;;;;;4.25;2.97;;;3.50;99.90;;;;;;5071548;28;20475;-82
2021/11/27 08:39:16;;;;;;;5.07;3.25;;;3.50;99.90;;;;;;5088067;28;20028;-80
2021/11/27 08:41:43;;;;;;;6.28;3.33;;;3.50;99.90;;;;;;5088151;28;20028;-82
2021/11/27 08:44:09;;;;;;;3.92;2.80;;;3.60;99.90;;;;;;5072532;28;20024;-81
2021/11/27 08:46:35;;;;;;;7.32;3.58;;;3.70;99.90;;;;;;5088059;28;20021;-81
2021/11/27 08:49:01;;;;;;;7.80;4.15;;;3.50;99.90;;;;;;5087863;28;20021;-81
2021/11/27 08:51:27;;;;;;;5.68;3.50;;;3.30;99.90;;;;;;5088007;28;20055;-81
2021/11/27 08:53:53;;;;;;;4.50;2.97;;;3.30;99.90;;;;;;5072475;28;20017;-81
2021/11/27 08:56:19;;;;;;;6.30;3.42;;;3.40;99.90;;;;;;5087972;28;20082;-82
2021/11/27 08:58:45;;;;;;;5.10;3.20;;;3.40;99.90;;;;;;5087969;28;20154;-82
2021/11/27 09:01:12;;;;;;;5.90;3.10;;;3.40;99.90;;;;;;5087976;28;20042;-82
2021/11/27 09:03:39;;;;;;;7.80;4.40;;;3.60;99.90;;;;;;5087892;28;20571;-81
2021/11/27 09:06:06;;;;;;;5.15;2.90;;;3.70;99.90;;;;;;5072329;28;20023;-80
2021/11/27 09:08:32;;;;;;;4.95;2.90;;;3.60;99.90;;;;;;5072651;28;20028;-81
2021/11/27 09:10:58;;;;;;;5.05;3.05;;;3.60;99.90;;;;;;5072229;28;20021;-81
2021/11/27 09:13:24;;;;;;;8.10;4.15;;;3.50;99.90;;;;;;5088118;28;20029;-81
2021/11/27 09:15:50;;;;;;;6.60;3.80;;;3.20;99.90;;;;;;5072233;28;20051;-81
2021/11/27 09:18:15;;;;;;;6.25;3.42;;;3.20;99.90;;;;;;5072237;28;20013;-81
2021/11/27 09:20:41;;;;;;;5.32;3.03;;;3.30;99.90;;;;;;5087849;28;20024;-82
2021/11/27 09:23:07;;;;;;;3.53;2.60;;;3.30;99.90;;;;;;5087716;28;20024;-82
2021/11/27 09:25:33;;;;;;;11.05;3.80;;;3.30;99.90;;;;;;5088573;28;20503;-83
2021/11/27 09:28:00;;;;;;;5.63;2.70;;;3.50;99.90;;;;;;5091289;28;20028;-81
2021/11/27 09:30:29;;;;;;;4.93;2.65;;;3.50;99.90;;;;;;5075553;28;20077;-82
2021/11/27 09:32:55;;;;;;;5.68;2.33;;;3.80;99.90;;;;;;5091283;28;20495;-82
2021/11/27 09:35:22;;;;;;;5.07;2.33;;;4.00;99.90;;;;;;5075574;28;20369;-82
2021/11/27 09:37:48;;;;;;;5.63;2.97;;;4.20;99.90;;;;;;5091786;28;20450;-82
2021/11/27 09:40:14;;;;;;;8.63;4.10;;;4.50;99.90;;;;;;5078377;28;20028;-82
2021/11/27 09:42:41;;;;;;;6.30;2.25;;;4.70;99.90;;;;;;5095968;28;20450;-82
2021/11/27 09:45:08;;;;;;;7.30;3.58;;;4.80;99.90;;;;;;5077459;28;20399;-83
2021/11/27 09:47:36;;;;;;;5.35;2.70;;;4.80;99.90;;;;;;5077301;28;20020;-80
2021/11/27 09:50:05;;;;;;;6.28;2.90;;;4.50;99.90;;;;;;5077257;28;20062;-83
2021/11/27 09:52:31;;;;;;;3.70;2.83;;;4.30;99.90;;;;;;5077209;28;20052;-82
2021/11/27 09:54:58;;;;;;;3.03;2.08;;;4.30;99.90;;;;;;5077268;28;20021;-82
2021/11/27 09:57:24;;;;;;;3.30;2.40;;;4.70;99.90;;;;;;5095443;28;20031;-82
2021/11/27 09:59:50;;;;;;;5.25;1.70;;;5.10;99.90;;;;;;5077149;28;20028;-80
2021/11/27 10:02:17;;;;;;;5.45;2.20;;;5.10;99.90;;;;;;5077126;28;20468;-81
2021/11/27 10:04:50;;;;;;;2.78;1.98;;;5.00;99.90;;;;;;5077112;28;20110;-82
2021/11/27 10:07:18;;;;;;;2.50;1.67;;;5.00;99.90;;;;;;5077085;28;20020;-82
2021/11/27 10:09:50;;;;;;;4.00;2.25;;;4.80;99.90;;;;;;5076964;28;20498;-82
2021/11/27 10:12:16;;;;;;;6.85;2.58;;;4.50;99.90;;;;;;5095092;28;20024;-82
2021/11/27 10:14:42;;;;;;;3.38;2.30;;;4.30;99.90;;;;;;5076876;28;20165;-82
2021/11/27 10:17:20;;;;;;;6.15;2.78;;;4.20;99.90;;;;;;5076922;28;20024;-82
2021/11/27 10:19:49;;;;;;;7.82;2.72;;;4.20;99.90;;;;;;5076882;28;20039;-81
2021/11/27 10:22:42;;;;;;;8.70;2.63;;;4.20;99.90;;;;;;5076751;28;20051;-82
2021/11/27 10:25:32;;;;;;;10.25;2.50;;;4.30;99.90;;;;;;5076764;28;20540;-82
2021/11/27 10:28:18;;;;;;;5.90;2.95;;;4.30;99.90;;;;;;5076712;28;20052;-80
2021/11/27 10:30:48;;;;;;;5.65;2.40;;;4.30;99.90;;;;;;5076544;28;20027;-82
2021/11/27 10:33:15;;;;;;;4.88;2.22;;;4.20;99.90;;;;;;5094778;28;20024;-82
2021/11/27 10:35:55;;;;;;;4.13;2.30;;;4.00;99.90;;;;;;5076590;28;20024;-82
2021/11/27 10:38:23;;;;;;;6.43;2.60;;;4.10;99.90;;;;;;5075700;28;20072;-82
2021/11/27 10:40:57;;;;;;;4.43;2.70;;;4.10;99.90;;;;;;5076360;28;20549;-82
2021/11/27 10:43:22;;;;;;;;;;;4.00;99.90;;;;;;5076892;28;20020;-82
2021/11/27 10:45:48;;;;;;;10.45;2.53;;;4.00;99.90;;;;;;5076346;28;19953;-81
2021/11/27 10:48:20;;;;;;;3.92;2.67;;;4.00;99.90;;;;;;5094544;28;20021;-82
2021/11/27 10:50:55;;;;;;;8.95;2.90;;;4.00;99.90;;;;;;5076270;28;20487;-81
2021/11/27 10:53:33;;;;;;;6.82;3.17;;;3.90;99.90;;;;;;5076195;28;20043;-82
2021/11/27 10:56:08;;;;;;;8.05;3.40;;;3.90;99.90;;;;;;5076184;28;20028;-82
2021/11/27 10:58:59;;;;;;;6.18;3.25;;;3.90;99.90;;;;;;5076148;28;20506;-82
2021/11/27 11:01:25;;;;;;;10.55;3.08;;;4.00;99.90;;;;;;5076084;28;20024;-82
2021/11/27 11:03:51;;;;;;;5.85;2.95;;;4.00;99.90;;;;;;5076050;28;20110;-82
2021/11/27 11:06:25;;;;;;;6.03;2.75;;;4.00;99.90;;;;;;5075930;28;20021;-82
2021/11/27 11:08:52;;;;;;;4.07;2.20;;;4.00;99.90;;;;;;5075960;28;20024;-83
2021/11/27 11:11:24;;;;;;;6.03;2.63;;;4.00;99.90;;;;;;5094036;28;20420;-82
2021/11/27 11:13:57;;;;;;;7.22;2.42;;;3.90;99.90;;;;;;5075778;28;20020;-80
2021/11/27 11:16:31;;;;;;;5.10;2.47;;;4.00;99.90;;;;;;5075907;28;20016;-83
2021/11/27 11:19:13;;;;;;;;;;;3.90;99.90;;;;;;5076276;28;20478;-82
2021/11/27 11:21:38;;;;;;;5.28;2.20;;;4.00;99.90;;;;;;5075507;28;19904;-82
2021/11/27 11:24:26;;;;;;;4.43;2.35;;;4.10;99.90;;;;;;5075477;28;20089;-82
2021/11/27 11:26:58;;;;;;;6.88;2.38;;;4.10;99.90;;;;;;5093779;28;20092;-82
2021/11/27 11:29:44;;;;;;;4.57;2.20;;;4.10;99.90;;;;;;5075399;28;20119;-81
2021/11/27 11:32:23;;;;;;;6.68;2.50;;;4.20;99.90;;;;;;5093699;28;20024;-82
2021/11/27 11:34:52;;;;;;;6.57;2.47;;;4.20;99.90;;;;;;5075426;28;20028;-82
2021/11/27 11:37:19;;;;;;;3.70;2.33;;;4.20;99.90;;;;;;5093434;28;20039;-82
2021/11/27 11:39:46;;;;;;;4.40;1.83;;;4.20;99.90;;;;;;5075389;28;20436;-82
2021/11/27 11:42:12;;;;;;;3.35;2.00;;;4.20;99.90;;;;;;5075300;28;20031;-82
2021/11/27 11:44:41;;;;;;;5.63;2.55;;;4.20;99.90;;;;;;5075224;28;20024;-82
2021/11/27 11:47:07;;;;;;;6.30;2.63;;;4.30;99.90;;;;;;5075123;28;20548;-82
2021/11/27 11:49:33;;;;;;;5.18;2.33;;;4.30;99.90;;;;;;5074922;28;20391;-82
2021/11/27 11:52:06;;;;;;;4.70;2.17;;;4.30;99.90;;;;;;5075218;28;20166;-85
2021/11/27 11:54:34;;;;;;;3.47;1.85;;;4.40;99.90;;;;;;5075286;28;20384;-85
2021/11/27 11:57:06;;;;;;;5.25;2.05;;;4.40;99.90;;;;;;5075038;28;20024;-85
2021/11/27 11:59:33;;;;;;;6.00;2.35;;;4.40;99.90;;;;;;5075134;28;20524;-85
2021/11/27 12:02:15;;;;;;;5.30;2.67;;;4.50;99.90;;;;;;5075108;28;20119;-85
2021/11/27 12:05:09;;;;;;;5.88;2.40;;;4.50;99.90;;;;;;5075039;28;20031;-85
2021/11/27 12:07:57;;;;;;;4.93;2.20;;;4.50;99.90;;;;;;5093511;28;20121;-84
2021/11/27 12:10:40;;;;;;;3.30;1.80;;;4.70;99.90;;;;;;5074998;28;20396;-84
2021/11/27 12:13:09;;;;;;;3.30;1.90;;;6.00;99.90;;;;;;5074913;28;20040;-85
2021/11/27 12:15:45;;;;;;;3.67;2.00;;;6.10;99.90;;;;;;5074989;28;20026;-84
2021/11/27 12:18:17;;;;;;;10.00;4.82;;;5.90;99.90;;;;;;5074884;28;20020;-84
2021/11/27 12:20:55;;;;;;;9.95;4.88;;;5.40;99.90;;;;;;5093014;28;20099;-85
2021/11/27 12:23:27;;;;;;;6.03;2.25;;;5.40;99.90;;;;;;5093086;28;20021;-84
2021/11/27 12:29:03;;;;;;;3.60;2.00;;;5.10;99.90;;;;;;5093214;28;20107;-85
2021/11/27 12:31:40;;;;;;;;;;;5.00;99.90;;;;;;5075799;28;20115;-84
2021/11/27 12:34:07;;;;;;;4.28;2.08;;;5.00;99.90;;;;;;5093283;28;19907;-83
2021/11/27 12:36:40;;;;;;;5.22;2.25;;;4.90;99.90;;;;;;5074419;28;20070;-84
2021/11/27 12:39:21;;;;;;;3.08;2.10;;;4.80;99.90;;;;;;5074761;28;20032;-82
2021/11/27 12:42:14;;;;;;;3.17;1.80;;;4.50;99.90;;;;;;5074965;28;20468;-84
2021/11/27 12:44:46;;;;;;;4.00;2.10;;;4.40;99.90;;;;;;5093185;28;20025;-84
2021/11/27 12:47:20;;;;;;;5.10;1.70;;;4.40;99.90;;;;;;5074761;28;20024;-83
2021/11/27 12:49:45;;;;;;;1.95;1.40;;;4.40;99.90;;;;;;5074695;28;20094;-83
2021/11/27 12:52:17;;;;;;;3.03;1.70;;;4.20;99.90;;;;;;5075445;28;20028;-86
2021/11/27 12:54:53;;;;;;;4.85;1.02;;;4.20;99.90;;;;;;5093343;28;20475;-83
2021/11/27 12:57:36;;;;;;;1.95;1.35;;;3.70;99.90;;;;;;5074597;28;20024;-83
2021/11/27 13:00:10;;;;;;;1.20;0.88;;;3.00;99.90;;;;;;5092986;28;20025;-84
2021/11/27 13:02:36;;;;;;;;;;;2.50;99.90;;;;;;5097543;28;20032;-87
2021/11/27 13:05:02;;;;;;;1.73;1.10;;;2.50;99.90;;;;;;5096795;28;19962;-87
2021/11/27 13:07:29;;;;;;;2.97;1.70;;;2.50;99.90;;;;;;5096701;28;20536;-85